sensor_id;sensor_type;location;lat;lon;timestamp;temperature;humidity
33645;DHT22;19986;48.190;16.366;2024-02-21T00:01:39;11.40;99.90
33645;DHT22;19986;48.190;16.366;2024-02-21T00:04:05;11.40;99.90
33645;DHT22;19986;48.190;16.366;2024-02-21T00:06:31;11.40;99.90
33645;DHT22;19986;48.190;16.366;2024-02-21T00:08:58;11.50;99.90
33645;DHT22;19986;48.190;16.366;2024-02-21T00:11:24;11.50;99.90
33645;DHT22;19986;48.190;16.366;2024-02-21T00:13:50;11.50;99.90
33645;DHT22;19986;48.190;16.366;2024-02-21T00:16:18;11.50;99.90
33645;DHT22;19986;48.190;16.366;2024-02-21T00:18:44;11.50;99.90
33645;DHT22;19986;48.190;16.366;2024-02-21T00:21:11;11.50;99.90
33645;DHT22;19986;48.190;16.366;2024-02-21T00:23:44;11.50;99.90
33645;DHT22;19986;48.190;16.366;2024-02-21T00:26:12;11.50;99.90
33645;DHT22;19986;48.190;16.366;2024-02-21T00:28:39;11.50;99.90
33645;DHT22;19986;48.190;16.366;2024-02-21T00:31:05;11.50;99.90
33645;DHT22;19986;48.190;16.366;2024-02-21T00:33:31;11.50;99.90
33645;DHT22;19986;48.190;16.366;2024-02-21T00:35:57;11.50;99.90
33645;DHT22;19986;48.190;16.366;2024-02-21T00:38:24;11.50;99.90
33645;DHT22;19986;48.190;16.366;2024-02-21T00:40:50;11.50;99.90
33645;DHT22;19986;48.190;16.366;2024-02-21T00:43:16;11.60;99.90
33645;DHT22;19986;48.190;16.366;2024-02-21T00:45:42;11.50;99.90
33645;DHT22;19986;48.190;16.366;2024-02-21T00:48:08;11.50;99.90
33645;DHT22;19986;48.190;16.366;2024-02-21T00:50:33;11.50;99.90
33645;DHT22;19986;48.190;16.366;2024-02-21T00:52:59;11.50;99.90
33645;DHT22;19986;48.190;16.366;2024-02-21T00:55:25;11.50;99.90
33645;DHT22;19986;48.190;16.366;2024-02-21T00:57:51;11.50;99.90
33645;DHT22;19986;48.190;16.366;2024-02-21T01:00:17;11.50;99.90
33645;DHT22;19986;48.190;16.366;2024-02-21T01:02:43;11.50;99.90
33645;DHT22;19986;48.190;16.366;2024-02-21T01:05:09;11.50;99.90
33645;DHT22;19986;48.190;16.366;2024-02-21T01:07:36;11.50;99.90
33645;DHT22;19986;48.190;16.366;2024-02-21T01:10:01;11.50;99.90
33645;DHT22;19986;48.190;16.366;2024-02-21T01:12:27;11.50;99.90
33645;DHT22;19986;48.190;16.366;2024-02-21T01:14:53;11.50;99.90
33645;DHT22;19986;48.190;16.366;2024-02-21T01:17:19;11.50;99.90
33645;DHT22;19986;48.190;16.366;2024-02-21T01:19:46;11.50;99.90
33645;DHT22;19986;48.190;16.366;2024-02-21T01:22:13;11.50;99.90
33645;DHT22;19986;48.190;16.366;2024-02-21T01:24:39;11.50;99.90
33645;DHT22;19986;48.190;16.366;2024-02-21T01:27:06;11.50;99.90
33645;DHT22;19986;48.190;16.366;2024-02-21T01:29:32;11.40;99.90
33645;DHT22;19986;48.190;16.366;2024-02-21T01:31:57;11.40;99.90
33645;DHT22;19986;48.190;16.366;2024-02-21T01:34:23;11.50;99.90
33645;DHT22;19986;48.190;16.366;2024-02-21T01:36:50;11.40;99.90
33645;DHT22;19986;48.190;16.366;2024-02-21T01:39:16;11.40;99.90
33645;DHT22;19986;48.190;16.366;2024-02-21T01:41:43;11.40;99.90
33645;DHT22;19986;48.190;16.366;2024-02-21T01:44:10;11.50;99.90
33645;DHT22;19986;48.190;16.366;2024-02-21T01:46:36;11.50;99.90
33645;DHT22;19986;48.190;16.366;2024-02-21T01:49:03;11.50;99.90
33645;DHT22;19986;48.190;16.366;2024-02-21T01:51:30;11.50;99.90
33645;DHT22;19986;48.190;16.366;2024-02-21T01:53:57;11.50;99.90
33645;DHT22;19986;48.190;16.366;2024-02-21T01:56:24;11.50;99.90
33645;DHT22;19986;48.190;16.366;2024-02-21T01:58:51;11.50;99.90
33645;DHT22;19986;48.190;16.366;2024-02-21T02:01:18;11.60;99.90
33645;DHT22;19986;48.190;16.366;2024-02-21T02:03:47;11.60;99.90
33645;DHT22;19986;48.190;16.366;2024-02-21T02:06:14;11.60;99.90
33645;DHT22;19986;48.190;16.366;2024-02-21T02:08:42;11.70;99.90
33645;DHT22;19986;48.190;16.366;2024-02-21T02:11:09;11.70;99.90
33645;DHT22;19986;48.190;16.366;2024-02-21T02:13:36;11.70;99.90
33645;DHT22;19986;48.190;16.366;2024-02-21T02:16:02;11.70;99.90
33645;DHT22;19986;48.190;16.366;2024-02-21T02:18:30;11.70;99.90
33645;DHT22;19986;48.190;16.366;2024-02-21T02:20:56;11.60;99.90
33645;DHT22;19986;48.190;16.366;2024-02-21T02:23:29;11.50;99.90
33645;DHT22;19986;48.190;16.366;2024-02-21T02:25:56;11.50;99.90
33645;DHT22;19986;48.190;16.366;2024-02-21T02:28:24;11.50;99.90
33645;DHT22;19986;48.190;16.366;2024-02-21T02:30:51;11.50;99.90
33645;DHT22;19986;48.190;16.366;2024-02-21T02:33:17;11.50;99.90
33645;DHT22;19986;48.190;16.366;2024-02-21T02:35:44;11.50;99.90
33645;DHT22;19986;48.190;16.366;2024-02-21T02:38:12;11.50;99.90
33645;DHT22;19986;48.190;16.366;2024-02-21T02:40:40;11.50;99.90
33645;DHT22;19986;48.190;16.366;2024-02-21T02:43:07;11.50;99.90
33645;DHT22;19986;48.190;16.366;2024-02-21T02:45:33;11.40;99.90
33645;DHT22;19986;48.190;16.366;2024-02-21T02:47:59;11.40;99.90
33645;DHT22;19986;48.190;16.366;2024-02-21T02:50:26;11.40;99.90
33645;DHT22;19986;48.190;16.366;2024-02-21T02:52:53;11.40;99.90
33645;DHT22;19986;48.190;16.366;2024-02-21T02:55:19;11.40;99.90
33645;DHT22;19986;48.190;16.366;2024-02-21T02:57:45;11.40;99.90
33645;DHT22;19986;48.190;16.366;2024-02-21T03:00:13;11.50;99.90
33645;DHT22;19986;48.190;16.366;2024-02-21T03:02:41;11.40;99.90
33645;DHT22;19986;48.190;16.366;2024-02-21T03:05:18;11.40;99.90
33645;DHT22;19986;48.190;16.366;2024-02-21T03:07:44;11.40;99.90
33645;DHT22;19986;48.190;16.366;2024-02-21T03:10:11;11.50;99.90
33645;DHT22;19986;48.190;16.366;2024-02-21T03:12:37;11.50;99.90
33645;DHT22;19986;48.190;16.366;2024-02-21T03:15:04;11.50;99.90
33645;DHT22;19986;48.190;16.366;2024-02-21T03:17:31;11.50;99.90
33645;DHT22;19986;48.190;16.366;2024-02-21T03:19:57;11.50;99.90
33645;DHT22;19986;48.190;16.366;2024-02-21T03:22:24;11.50;99.90
33645;DHT22;19986;48.190;16.366;2024-02-21T03:24:50;11.50;99.90
33645;DHT22;19986;48.190;16.366;2024-02-21T03:27:16;11.50;99.90
33645;DHT22;19986;48.190;16.366;2024-02-21T03:29:42;11.50;99.90
33645;DHT22;19986;48.190;16.366;2024-02-21T03:32:07;11.50;99.90
33645;DHT22;19986;48.190;16.366;2024-02-21T03:34:33;11.50;99.90
33645;DHT22;19986;48.190;16.366;2024-02-21T03:36:59;11.50;99.90
33645;DHT22;19986;48.190;16.366;2024-02-21T03:39:25;11.50;99.90
33645;DHT22;19986;48.190;16.366;2024-02-21T03:41:51;11.50;99.90
33645;DHT22;19986;48.190;16.366;2024-02-21T03:44:17;11.50;99.90
33645;DHT22;19986;48.190;16.366;2024-02-21T03:46:43;11.40;99.90
33645;DHT22;19986;48.190;16.366;2024-02-21T03:49:09;11.30;99.90
33645;DHT22;19986;48.190;16.366;2024-02-21T03:51:35;11.30;99.90
33645;DHT22;19986;48.190;16.366;2024-02-21T03:54:01;11.30;99.90
33645;DHT22;19986;48.190;16.366;2024-02-21T03:56:27;11.30;99.90
33645;DHT22;19986;48.190;16.366;2024-02-21T03:58:53;11.30;99.90
33645;DHT22;19986;48.190;16.366;2024-02-21T04:01:20;11.40;99.90
33645;DHT22;19986;48.190;16.366;2024-02-21T04:03:46;11.30;99.90
33645;DHT22;19986;48.190;16.366;2024-02-21T04:06:12;11.30;99.90
33645;DHT22;19986;48.190;16.366;2024-02-21T04:08:39;11.20;99.90
33645;DHT22;19986;48.190;16.366;2024-02-21T04:11:05;11.20;99.90
33645;DHT22;19986;48.190;16.366;2024-02-21T04:13:31;11.10;99.90
33645;DHT22;19986;48.190;16.366;2024-02-21T04:15:56;11.10;99.90
33645;DHT22;19986;48.190;16.366;2024-02-21T04:18:24;11.10;99.90
33645;DHT22;19986;48.190;16.366;2024-02-21T04:20:51;11.10;99.90
33645;DHT22;19986;48.190;16.366;2024-02-21T04:23:19;11.10;99.90
33645;DHT22;19986;48.190;16.366;2024-02-21T04:25:45;11.00;99.90
33645;DHT22;19986;48.190;16.366;2024-02-21T04:28:11;11.00;99.90
33645;DHT22;19986;48.190;16.366;2024-02-21T04:30:37;11.00;99.90
33645;DHT22;19986;48.190;16.366;2024-02-21T04:33:05;11.00;99.90
33645;DHT22;19986;48.190;16.366;2024-02-21T04:35:30;11.00;99.90
33645;DHT22;19986;48.190;16.366;2024-02-21T04:37:56;11.10;99.90
33645;DHT22;19986;48.190;16.366;2024-02-21T04:40:22;11.10;99.90
33645;DHT22;19986;48.190;16.366;2024-02-21T04:42:48;11.10;99.90
33645;DHT22;19986;48.190;16.366;2024-02-21T04:45:14;11.10;99.90
33645;DHT22;19986;48.190;16.366;2024-02-21T04:47:42;11.10;99.90
33645;DHT22;19986;48.190;16.366;2024-02-21T04:50:08;11.10;99.90
33645;DHT22;19986;48.190;16.366;2024-02-21T04:52:34;11.10;99.90
33645;DHT22;19986;48.190;16.366;2024-02-21T04:55:00;11.20;99.90
33645;DHT22;19986;48.190;16.366;2024-02-21T04:57:26;11.20;99.90
33645;DHT22;19986;48.190;16.366;2024-02-21T04:59:52;11.20;99.90
33645;DHT22;19986;48.190;16.366;2024-02-21T05:02:18;11.10;99.90
33645;DHT22;19986;48.190;16.366;2024-02-21T05:04:45;11.10;99.90
33645;DHT22;19986;48.190;16.366;2024-02-21T05:07:11;11.10;99.90
33645;DHT22;19986;48.190;16.366;2024-02-21T05:09:37;11.10;99.90
33645;DHT22;19986;48.190;16.366;2024-02-21T05:12:04;11.10;99.90
33645;DHT22;19986;48.190;16.366;2024-02-21T05:14:31;11.10;99.90
33645;DHT22;19986;48.190;16.366;2024-02-21T05:16:57;11.20;99.90
33645;DHT22;19986;48.190;16.366;2024-02-21T05:19:23;11.10;99.90
33645;DHT22;19986;48.190;16.366;2024-02-21T05:21:50;11.10;99.90
33645;DHT22;19986;48.190;16.366;2024-02-21T05:24:16;11.10;99.90
33645;DHT22;19986;48.190;16.366;2024-02-21T05:26:42;11.10;99.90
33645;DHT22;19986;48.190;16.366;2024-02-21T05:29:07;11.20;99.90
33645;DHT22;19986;48.190;16.366;2024-02-21T05:34:19;11.20;99.90
33645;DHT22;19986;48.190;16.366;2024-02-21T05:36:45;11.20;99.90
33645;DHT22;19986;48.190;16.366;2024-02-21T05:39:12;11.20;99.90
33645;DHT22;19986;48.190;16.366;2024-02-21T05:41:38;11.30;99.90
33645;DHT22;19986;48.190;16.366;2024-02-21T05:44:04;11.30;99.90
33645;DHT22;19986;48.190;16.366;2024-02-21T05:46:29;11.30;99.90
33645;DHT22;19986;48.190;16.366;2024-02-21T05:48:55;11.30;99.90
33645;DHT22;19986;48.190;16.366;2024-02-21T05:51:21;11.30;99.90
33645;DHT22;19986;48.190;16.366;2024-02-21T05:53:47;11.30;99.90
33645;DHT22;19986;48.190;16.366;2024-02-21T05:56:14;11.30;99.90
33645;DHT22;19986;48.190;16.366;2024-02-21T05:58:40;11.40;99.90
33645;DHT22;19986;48.190;16.366;2024-02-21T06:01:13;11.30;99.90
33645;DHT22;19986;48.190;16.366;2024-02-21T06:03:39;11.30;99.90
33645;DHT22;19986;48.190;16.366;2024-02-21T06:06:05;11.30;99.90
33645;DHT22;19986;48.190;16.366;2024-02-21T06:08:31;11.30;99.90
33645;DHT22;19986;48.190;16.366;2024-02-21T06:10:57;11.30;99.90
33645;DHT22;19986;48.190;16.366;2024-02-21T06:13:26;11.30;99.90
33645;DHT22;19986;48.190;16.366;2024-02-21T06:15:53;11.30;99.90
33645;DHT22;19986;48.190;16.366;2024-02-21T06:18:20;11.30;99.90
33645;DHT22;19986;48.190;16.366;2024-02-21T06:20:46;11.30;99.90
33645;DHT22;19986;48.190;16.366;2024-02-21T06:23:13;11.30;99.90
33645;DHT22;19986;48.190;16.366;2024-02-21T06:25:39;11.20;99.90
33645;DHT22;19986;48.190;16.366;2024-02-21T06:28:05;11.30;99.90
33645;DHT22;19986;48.190;16.366;2024-02-21T06:30:33;11.30;99.90
33645;DHT22;19986;48.190;16.366;2024-02-21T06:32:58;11.40;99.90
33645;DHT22;19986;48.190;16.366;2024-02-21T06:35:25;11.30;99.90
33645;DHT22;19986;48.190;16.366;2024-02-21T06:37:52;11.40;99.90
33645;DHT22;19986;48.190;16.366;2024-02-21T06:40:20;11.30;99.90
33645;DHT22;19986;48.190;16.366;2024-02-21T06:42:47;11.40;99.90
33645;DHT22;19986;48.190;16.366;2024-02-21T06:45:14;11.40;99.90
33645;DHT22;19986;48.190;16.366;2024-02-21T06:47:39;11.40;99.90
33645;DHT22;19986;48.190;16.366;2024-02-21T06:50:05;11.40;99.90
33645;DHT22;19986;48.190;16.366;2024-02-21T06:52:31;11.50;99.90
33645;DHT22;19986;48.190;16.366;2024-02-21T06:54:58;11.50;99.90
33645;DHT22;19986;48.190;16.366;2024-02-21T06:57:24;11.50;99.90
33645;DHT22;19986;48.190;16.366;2024-02-21T06:59:50;11.50;99.90
33645;DHT22;19986;48.190;16.366;2024-02-21T07:02:16;11.50;99.90
33645;DHT22;19986;48.190;16.366;2024-02-21T07:04:42;11.60;99.90
33645;DHT22;19986;48.190;16.366;2024-02-21T07:07:09;11.70;99.90
33645;DHT22;19986;48.190;16.366;2024-02-21T07:09:35;11.80;99.90
33645;DHT22;19986;48.190;16.366;2024-02-21T07:12:01;11.70;99.90
33645;DHT22;19986;48.190;16.366;2024-02-21T07:14:32;11.80;99.90
33645;DHT22;19986;48.190;16.366;2024-02-21T07:16:58;11.70;99.90
33645;DHT22;19986;48.190;16.366;2024-02-21T07:19:24;11.70;99.90
33645;DHT22;19986;48.190;16.366;2024-02-21T07:22:00;11.70;99.90
33645;DHT22;19986;48.190;16.366;2024-02-21T07:24:26;11.60;99.90
33645;DHT22;19986;48.190;16.366;2024-02-21T07:26:52;11.60;99.90
33645;DHT22;19986;48.190;16.366;2024-02-21T07:29:18;11.60;99.90
33645;DHT22;19986;48.190;16.366;2024-02-21T07:31:44;11.60;99.90
33645;DHT22;19986;48.190;16.366;2024-02-21T07:34:12;11.70;99.90
33645;DHT22;19986;48.190;16.366;2024-02-21T07:36:40;11.70;99.90
33645;DHT22;19986;48.190;16.366;2024-02-21T07:39:08;11.80;99.90
33645;DHT22;19986;48.190;16.366;2024-02-21T07:41:34;11.80;99.90
33645;DHT22;19986;48.190;16.366;2024-02-21T07:44:01;12.00;99.90
33645;DHT22;19986;48.190;16.366;2024-02-21T07:46:26;12.10;99.90
33645;DHT22;19986;48.190;16.366;2024-02-21T07:48:52;12.20;99.90
33645;DHT22;19986;48.190;16.366;2024-02-21T07:51:18;12.10;99.90
33645;DHT22;19986;48.190;16.366;2024-02-21T07:53:45;12.10;99.90
33645;DHT22;19986;48.190;16.366;2024-02-21T07:56:15;12.10;99.90
33645;DHT22;19986;48.190;16.366;2024-02-21T07:58:42;12.20;99.90
33645;DHT22;19986;48.190;16.366;2024-02-21T08:01:08;12.30;99.90
33645;DHT22;19986;48.190;16.366;2024-02-21T08:03:34;12.50;99.90
33645;DHT22;19986;48.190;16.366;2024-02-21T08:06:00;12.60;99.90
33645;DHT22;19986;48.190;16.366;2024-02-21T08:08:27;12.80;99.90
33645;DHT22;19986;48.190;16.366;2024-02-21T08:10:53;12.90;99.90
33645;DHT22;19986;48.190;16.366;2024-02-21T08:13:18;12.90;99.90
33645;DHT22;19986;48.190;16.366;2024-02-21T08:15:44;13.00;99.90
33645;DHT22;19986;48.190;16.366;2024-02-21T08:18:10;13.10;99.90
33645;DHT22;19986;48.190;16.366;2024-02-21T08:20:36;13.10;99.90
33645;DHT22;19986;48.190;16.366;2024-02-21T08:23:03;13.10;99.90
33645;DHT22;19986;48.190;16.366;2024-02-21T08:25:29;13.10;99.90
33645;DHT22;19986;48.190;16.366;2024-02-21T08:27:58;13.10;99.90
33645;DHT22;19986;48.190;16.366;2024-02-21T08:30:25;13.20;99.90
33645;DHT22;19986;48.190;16.366;2024-02-21T08:32:50;13.30;99.90
33645;DHT22;19986;48.190;16.366;2024-02-21T08:35:17;13.40;99.90
33645;DHT22;19986;48.190;16.366;2024-02-21T08:37:48;13.60;99.90
33645;DHT22;19986;48.190;16.366;2024-02-21T08:40:14;13.70;99.90
33645;DHT22;19986;48.190;16.366;2024-02-21T08:42:43;13.80;99.90
33645;DHT22;19986;48.190;16.366;2024-02-21T08:45:10;13.90;99.90
33645;DHT22;19986;48.190;16.366;2024-02-21T08:47:39;14.10;99.90
33645;DHT22;19986;48.190;16.366;2024-02-21T08:50:07;14.30;99.90
33645;DHT22;19986;48.190;16.366;2024-02-21T08:52:33;14.50;99.90
33645;DHT22;19986;48.190;16.366;2024-02-21T08:54:59;14.60;99.90
33645;DHT22;19986;48.190;16.366;2024-02-21T08:57:25;14.60;99.90
33645;DHT22;19986;48.190;16.366;2024-02-21T08:59:51;14.50;99.90
33645;DHT22;19986;48.190;16.366;2024-02-21T09:02:17;14.50;99.90
33645;DHT22;19986;48.190;16.366;2024-02-21T09:04:44;14.40;99.90
33645;DHT22;19986;48.190;16.366;2024-02-21T09:07:11;14.30;99.90
33645;DHT22;19986;48.190;16.366;2024-02-21T09:09:37;14.00;99.90
33645;DHT22;19986;48.190;16.366;2024-02-21T09:12:06;13.90;99.90
33645;DHT22;19986;48.190;16.366;2024-02-21T09:14:33;13.80;99.90
33645;DHT22;19986;48.190;16.366;2024-02-21T09:16:59;13.80;99.90
33645;DHT22;19986;48.190;16.366;2024-02-21T09:19:25;13.80;99.90
33645;DHT22;19986;48.190;16.366;2024-02-21T09:21:51;13.90;99.90
33645;DHT22;19986;48.190;16.366;2024-02-21T09:24:17;14.10;99.90
33645;DHT22;19986;48.190;16.366;2024-02-21T09:26:43;14.30;99.90
33645;DHT22;19986;48.190;16.366;2024-02-21T09:29:09;14.50;99.90
33645;DHT22;19986;48.190;16.366;2024-02-21T09:31:35;14.70;99.90
33645;DHT22;19986;48.190;16.366;2024-02-21T09:34:01;14.90;99.90
33645;DHT22;19986;48.190;16.366;2024-02-21T09:36:27;14.90;99.90
33645;DHT22;19986;48.190;16.366;2024-02-21T09:38:54;15.00;99.90
33645;DHT22;19986;48.190;16.366;2024-02-21T09:41:27;14.90;99.90
33645;DHT22;19986;48.190;16.366;2024-02-21T09:43:55;15.00;99.90
33645;DHT22;19986;48.190;16.366;2024-02-21T09:46:50;14.90;99.90
33645;DHT22;19986;48.190;16.366;2024-02-21T09:51:50;15.00;99.90
33645;DHT22;19986;48.190;16.366;2024-02-21T09:54:18;15.00;99.90
33645;DHT22;19986;48.190;16.366;2024-02-21T09:56:47;15.10;99.90
33645;DHT22;19986;48.190;16.366;2024-02-21T09:59:15;15.10;99.90
33645;DHT22;19986;48.190;16.366;2024-02-21T10:01:43;15.00;99.90
33645;DHT22;19986;48.190;16.366;2024-02-21T10:04:10;15.00;99.90
33645;DHT22;19986;48.190;16.366;2024-02-21T10:06:37;15.00;99.90
33645;DHT22;19986;48.190;16.366;2024-02-21T10:09:07;15.20;99.90
33645;DHT22;19986;48.190;16.366;2024-02-21T10:11:33;15.60;99.90
33645;DHT22;19986;48.190;16.366;2024-02-21T10:14:12;15.70;99.90
33645;DHT22;19986;48.190;16.366;2024-02-21T10:16:38;15.80;99.90
33645;DHT22;19986;48.190;16.366;2024-02-21T10:19:04;15.90;99.90
33645;DHT22;19986;48.190;16.366;2024-02-21T10:21:32;16.10;99.90
33645;DHT22;19986;48.190;16.366;2024-02-21T10:23:58;16.20;99.90
33645;DHT22;19986;48.190;16.366;2024-02-21T10:26:25;16.20;99.90
33645;DHT22;19986;48.190;16.366;2024-02-21T10:28:52;16.20;99.90
33645;DHT22;19986;48.190;16.366;2024-02-21T10:31:26;16.10;99.90
33645;DHT22;19986;48.190;16.366;2024-02-21T10:33:57;16.10;99.90
33645;DHT22;19986;48.190;16.366;2024-02-21T10:36:38;16.10;99.90
33645;DHT22;19986;48.190;16.366;2024-02-21T10:39:04;16.30;99.90
33645;DHT22;19986;48.190;16.366;2024-02-21T10:41:31;16.30;99.90
33645;DHT22;19986;48.190;16.366;2024-02-21T10:43:58;16.40;99.90
33645;DHT22;19986;48.190;16.366;2024-02-21T10:46:26;16.50;99.90
33645;DHT22;19986;48.190;16.366;2024-02-21T10:49:15;16.60;99.90
33645;DHT22;19986;48.190;16.366;2024-02-21T10:51:47;16.60;99.90
33645;DHT22;19986;48.190;16.366;2024-02-21T10:54:36;16.50;99.90
33645;DHT22;19986;48.190;16.366;2024-02-21T10:57:05;16.70;99.90
33645;DHT22;19986;48.190;16.366;2024-02-21T10:59:32;16.80;99.90
33645;DHT22;19986;48.190;16.366;2024-02-21T11:01:58;16.80;99.90
33645;DHT22;19986;48.190;16.366;2024-02-21T11:04:25;16.70;99.90
33645;DHT22;19986;48.190;16.366;2024-02-21T11:06:52;16.60;99.90
33645;DHT22;19986;48.190;16.366;2024-02-21T11:09:18;16.50;99.90
33645;DHT22;19986;48.190;16.366;2024-02-21T11:11:45;16.50;99.90
33645;DHT22;19986;48.190;16.366;2024-02-21T11:14:18;16.40;99.90
33645;DHT22;19986;48.190;16.366;2024-02-21T11:16:44;16.40;99.90
33645;DHT22;19986;48.190;16.366;2024-02-21T11:19:27;16.20;99.90
33645;DHT22;19986;48.190;16.366;2024-02-21T11:21:54;16.10;99.90
33645;DHT22;19986;48.190;16.366;2024-02-21T11:24:31;16.10;99.90
33645;DHT22;19986;48.190;16.366;2024-02-21T11:27:15;16.10;99.90
33645;DHT22;19986;48.190;16.366;2024-02-21T11:29:49;15.90;99.90
33645;DHT22;19986;48.190;16.366;2024-02-21T11:32:20;15.70;99.90
33645;DHT22;19986;48.190;16.366;2024-02-21T11:35:03;15.50;99.90
33645;DHT22;19986;48.190;16.366;2024-02-21T11:37:34;15.60;99.90
33645;DHT22;19986;48.190;16.366;2024-02-21T11:40:03;15.50;99.90
33645;DHT22;19986;48.190;16.366;2024-02-21T11:42:29;15.50;99.90
33645;DHT22;19986;48.190;16.366;2024-02-21T11:45:00;15.50;99.90
33645;DHT22;19986;48.190;16.366;2024-02-21T11:47:27;15.60;99.90
33645;DHT22;19986;48.190;16.366;2024-02-21T11:49:54;15.70;99.90
33645;DHT22;19986;48.190;16.366;2024-02-21T11:52:24;15.70;99.90
33645;DHT22;19986;48.190;16.366;2024-02-21T11:54:53;15.80;99.90
33645;DHT22;19986;48.190;16.366;2024-02-21T11:57:20;15.90;99.90
33645;DHT22;19986;48.190;16.366;2024-02-21T11:59:46;16.10;99.90
33645;DHT22;19986;48.190;16.366;2024-02-21T12:02:14;16.10;99.90
33645;DHT22;19986;48.190;16.366;2024-02-21T12:04:40;16.20;99.90
33645;DHT22;19986;48.190;16.366;2024-02-21T12:07:06;16.30;99.90
33645;DHT22;19986;48.190;16.366;2024-02-21T12:09:34;16.30;99.90
33645;DHT22;19986;48.190;16.366;2024-02-21T12:12:03;16.40;99.90
33645;DHT22;19986;48.190;16.366;2024-02-21T12:14:31;16.40;99.80
33645;DHT22;19986;48.190;16.366;2024-02-21T12:17:02;16.30;99.40
33645;DHT22;19986;48.190;16.366;2024-02-21T12:19:31;16.30;99.20
33645;DHT22;19986;48.190;16.366;2024-02-21T12:21:58;16.10;99.20
33645;DHT22;19986;48.190;16.366;2024-02-21T12:24:25;16.10;99.80
33645;DHT22;19986;48.190;16.366;2024-02-21T12:26:53;16.00;99.20
33645;DHT22;19986;48.190;16.366;2024-02-21T12:29:22;15.90;99.50
33645;DHT22;19986;48.190;16.366;2024-02-21T12:31:49;15.80;99.30
33645;DHT22;19986;48.190;16.366;2024-02-21T12:34:16;15.80;99.40
33645;DHT22;19986;48.190;16.366;2024-02-21T12:36:45;15.80;99.60
33645;DHT22;19986;48.190;16.366;2024-02-21T12:39:13;15.90;99.60
33645;DHT22;19986;48.190;16.366;2024-02-21T12:41:40;15.90;99.50
33645;DHT22;19986;48.190;16.366;2024-02-21T12:44:08;15.90;99.30
33645;DHT22;19986;48.190;16.366;2024-02-21T12:46:35;15.80;99.40
33645;DHT22;19986;48.190;16.366;2024-02-21T12:49:01;15.80;99.40
33645;DHT22;19986;48.190;16.366;2024-02-21T12:51:29;15.80;99.10
33645;DHT22;19986;48.190;16.366;2024-02-21T12:53:58;15.80;99.10
33645;DHT22;19986;48.190;16.366;2024-02-21T12:56:25;15.70;99.40
33645;DHT22;19986;48.190;16.366;2024-02-21T12:58:53;15.90;99.50
33645;DHT22;19986;48.190;16.366;2024-02-21T13:01:30;16.00;99.40
33645;DHT22;19986;48.190;16.366;2024-02-21T13:03:56;16.20;99.40
33645;DHT22;19986;48.190;16.366;2024-02-21T13:06:23;16.40;99.10
33645;DHT22;19986;48.190;16.366;2024-02-21T13:08:50;16.50;98.80
33645;DHT22;19986;48.190;16.366;2024-02-21T13:11:16;16.60;98.60
33645;DHT22;19986;48.190;16.366;2024-02-21T13:13:42;16.60;98.40
33645;DHT22;19986;48.190;16.366;2024-02-21T13:16:08;16.70;98.30
33645;DHT22;19986;48.190;16.366;2024-02-21T13:18:35;16.80;98.00
33645;DHT22;19986;48.190;16.366;2024-02-21T13:21:04;16.70;97.90
33645;DHT22;19986;48.190;16.366;2024-02-21T13:23:30;16.80;97.90
33645;DHT22;19986;48.190;16.366;2024-02-21T13:25:56;16.90;98.20
33645;DHT22;19986;48.190;16.366;2024-02-21T13:28:22;16.90;97.50
33645;DHT22;19986;48.190;16.366;2024-02-21T13:30:48;16.80;97.70
33645;DHT22;19986;48.190;16.366;2024-02-21T13:33:13;16.80;97.80
33645;DHT22;19986;48.190;16.366;2024-02-21T13:35:39;16.90;97.60
33645;DHT22;19986;48.190;16.366;2024-02-21T13:38:05;16.80;97.70
33645;DHT22;19986;48.190;16.366;2024-02-21T13:40:31;16.70;97.70
33645;DHT22;19986;48.190;16.366;2024-02-21T13:42:57;16.70;97.40
33645;DHT22;19986;48.190;16.366;2024-02-21T13:45:23;16.80;97.80
33645;DHT22;19986;48.190;16.366;2024-02-21T13:47:49;16.80;97.70
33645;DHT22;19986;48.190;16.366;2024-02-21T13:50:15;16.80;97.40
33645;DHT22;19986;48.190;16.366;2024-02-21T13:52:42;16.90;97.70
33645;DHT22;19986;48.190;16.366;2024-02-21T13:55:08;16.90;97.30
33645;DHT22;19986;48.190;16.366;2024-02-21T13:57:37;17.00;97.60
33645;DHT22;19986;48.190;16.366;2024-02-21T14:00:05;17.10;97.60
33645;DHT22;19986;48.190;16.366;2024-02-21T14:02:33;17.10;97.60
33645;DHT22;19986;48.190;16.366;2024-02-21T14:05:00;17.20;97.00
33645;DHT22;19986;48.190;16.366;2024-02-21T14:07:25;17.10;97.10
33645;DHT22;19986;48.190;16.366;2024-02-21T14:09:51;17.00;97.00
33645;DHT22;19986;48.190;16.366;2024-02-21T14:12:17;16.90;97.10
33645;DHT22;19986;48.190;16.366;2024-02-21T14:14:46;16.90;97.00
33645;DHT22;19986;48.190;16.366;2024-02-21T14:17:12;16.90;97.10
33645;DHT22;19986;48.190;16.366;2024-02-21T14:19:38;17.00;97.20
33645;DHT22;19986;48.190;16.366;2024-02-21T14:22:04;17.00;97.10
33645;DHT22;19986;48.190;16.366;2024-02-21T14:24:30;17.10;97.40
33645;DHT22;19986;48.190;16.366;2024-02-21T14:26:58;17.00;96.90
33645;DHT22;19986;48.190;16.366;2024-02-21T14:29:25;17.00;97.10
33645;DHT22;19986;48.190;16.366;2024-02-21T14:31:51;17.10;96.80
33645;DHT22;19986;48.190;16.366;2024-02-21T14:34:17;17.00;96.80
33645;DHT22;19986;48.190;16.366;2024-02-21T14:36:43;16.90;96.90
33645;DHT22;19986;48.190;16.366;2024-02-21T14:39:09;16.90;97.00
33645;DHT22;19986;48.190;16.366;2024-02-21T14:41:34;16.90;97.00
33645;DHT22;19986;48.190;16.366;2024-02-21T14:44:02;17.00;97.00
33645;DHT22;19986;48.190;16.366;2024-02-21T14:46:29;17.10;96.60
33645;DHT22;19986;48.190;16.366;2024-02-21T14:48:55;17.00;96.80
33645;DHT22;19986;48.190;16.366;2024-02-21T14:51:23;17.10;96.80
33645;DHT22;19986;48.190;16.366;2024-02-21T14:53:49;17.10;96.80
33645;DHT22;19986;48.190;16.366;2024-02-21T14:56:15;17.00;96.30
33645;DHT22;19986;48.190;16.366;2024-02-21T14:58:43;17.00;96.50
33645;DHT22;19986;48.190;16.366;2024-02-21T15:01:10;17.00;96.50
33645;DHT22;19986;48.190;16.366;2024-02-21T15:03:38;16.90;96.00
33645;DHT22;19986;48.190;16.366;2024-02-21T15:06:05;16.80;96.10
33645;DHT22;19986;48.190;16.366;2024-02-21T15:08:32;16.70;96.10
33645;DHT22;19986;48.190;16.366;2024-02-21T15:10:58;16.60;96.40
33645;DHT22;19986;48.190;16.366;2024-02-21T15:13:24;16.40;96.60
33645;DHT22;19986;48.190;16.366;2024-02-21T15:15:50;16.40;96.80
33645;DHT22;19986;48.190;16.366;2024-02-21T15:18:18;16.40;97.00
33645;DHT22;19986;48.190;16.366;2024-02-21T15:20:44;16.30;97.20